sensor_id;sensor_type;location;lat;lon;timestamp;P1;durP1;ratioP1;P2;durP2;ratioP2
67500;SDS011;54349;52.528;19.760;2023-05-07T00:00:28;4.10;;;2.40;;
67500;SDS011;54349;52.528;19.760;2023-05-07T00:03:16;4.80;;;2.40;;
67500;SDS011;54349;52.528;19.760;2023-05-07T00:05:44;4.20;;;2.40;;
67500;SDS011;54349;52.528;19.760;2023-05-07T00:08:12;3.90;;;2.10;;
67500;SDS011;54349;52.528;19.760;2023-05-07T00:10:41;4.30;;;2.50;;
67500;SDS011;54349;52.528;19.760;2023-05-07T00:13:10;3.90;;;2.20;;
67500;SDS011;54349;52.528;19.760;2023-05-07T00:15:39;4.40;;;2.30;;
67500;SDS011;54349;52.528;19.760;2023-05-07T00:18:07;3.70;;;2.20;;
67500;SDS011;54349;52.528;19.760;2023-05-07T00:20:36;4.50;;;2.20;;
67500;SDS011;54349;52.528;19.760;2023-05-07T00:23:04;3.90;;;2.30;;
67500;SDS011;54349;52.528;19.760;2023-05-07T00:25:32;3.80;;;2.20;;
67500;SDS011;54349;52.528;19.760;2023-05-07T00:28:01;3.50;;;2.00;;
67500;SDS011;54349;52.528;19.760;2023-05-07T00:30:31;3.80;;;2.10;;
67500;SDS011;54349;52.528;19.760;2023-05-07T00:33:00;3.70;;;2.20;;
67500;SDS011;54349;52.528;19.760;2023-05-07T00:35:29;4.30;;;2.40;;
67500;SDS011;54349;52.528;19.760;2023-05-07T00:37:58;4.20;;;2.40;;
67500;SDS011;54349;52.528;19.760;2023-05-07T00:40:26;3.90;;;2.30;;
67500;SDS011;54349;52.528;19.760;2023-05-07T00:42:54;4.20;;;2.40;;
67500;SDS011;54349;52.528;19.760;2023-05-07T00:45:27;3.70;;;2.30;;
67500;SDS011;54349;52.528;19.760;2023-05-07T00:47:58;4.30;;;2.20;;
67500;SDS011;54349;52.528;19.760;2023-05-07T00:50:29;3.70;;;2.30;;
67500;SDS011;54349;52.528;19.760;2023-05-07T00:52:59;3.50;;;2.10;;
67500;SDS011;54349;52.528;19.760;2023-05-07T00:55:28;4.30;;;2.30;;
67500;SDS011;54349;52.528;19.760;2023-05-07T00:57:57;3.60;;;2.10;;
67500;SDS011;54349;52.528;19.760;2023-05-07T01:00:25;3.60;;;2.10;;
67500;SDS011;54349;52.528;19.760;2023-05-07T01:02:53;4.00;;;2.20;;
67500;SDS011;54349;52.528;19.760;2023-05-07T01:05:23;3.50;;;2.20;;
67500;SDS011;54349;52.528;19.760;2023-05-07T01:07:54;8.90;;;2.40;;
67500;SDS011;54349;52.528;19.760;2023-05-07T01:10:25;4.10;;;2.40;;
67500;SDS011;54349;52.528;19.760;2023-05-07T01:12:55;3.40;;;2.20;;
67500;SDS011;54349;52.528;19.760;2023-05-07T01:15:23;3.90;;;2.10;;
67500;SDS011;54349;52.528;19.760;2023-05-07T01:17:51;3.60;;;2.30;;
67500;SDS011;54349;52.528;19.760;2023-05-07T01:20:25;3.90;;;2.10;;
67500;SDS011;54349;52.528;19.760;2023-05-07T01:22:57;4.60;;;2.50;;
67500;SDS011;54349;52.528;19.760;2023-05-07T01:25:25;4.10;;;2.10;;
67500;SDS011;54349;52.528;19.760;2023-05-07T01:27:56;3.90;;;2.40;;
67500;SDS011;54349;52.528;19.760;2023-05-07T01:30:30;4.00;;;2.40;;
67500;SDS011;54349;52.528;19.760;2023-05-07T01:33:04;2.90;;;1.90;;
67500;SDS011;54349;52.528;19.760;2023-05-07T01:35:43;3.30;;;2.10;;
67500;SDS011;54349;52.528;19.760;2023-05-07T01:38:15;4.70;;;2.10;;
67500;SDS011;54349;52.528;19.760;2023-05-07T01:40:45;3.50;;;2.10;;
67500;SDS011;54349;52.528;19.760;2023-05-07T01:43:14;4.30;;;2.20;;
67500;SDS011;54349;52.528;19.760;2023-05-07T01:45:44;3.80;;;2.20;;
67500;SDS011;54349;52.528;19.760;2023-05-07T01:48:14;3.50;;;2.30;;
67500;SDS011;54349;52.528;19.760;2023-05-07T01:50:44;3.20;;;2.00;;
67500;SDS011;54349;52.528;19.760;2023-05-07T01:53:14;4.40;;;2.30;;
67500;SDS011;54349;52.528;19.760;2023-05-07T01:55:43;3.50;;;2.10;;
67500;SDS011;54349;52.528;19.760;2023-05-07T01:58:13;3.20;;;2.00;;
67500;SDS011;54349;52.528;19.760;2023-05-07T02:00:41;3.70;;;2.20;;
67500;SDS011;54349;52.528;19.760;2023-05-07T02:03:09;3.20;;;2.00;;
67500;SDS011;54349;52.528;19.760;2023-05-07T02:05:42;3.80;;;2.10;;
67500;SDS011;54349;52.528;19.760;2023-05-07T02:08:31;3.20;;;2.10;;
67500;SDS011;54349;52.528;19.760;2023-05-07T02:11:00;4.50;;;2.20;;
67500;SDS011;54349;52.528;19.760;2023-05-07T02:13:31;3.80;;;2.20;;
67500;SDS011;54349;52.528;19.760;2023-05-07T02:16:02;4.30;;;2.10;;
67500;SDS011;54349;52.528;19.760;2023-05-07T02:18:31;3.50;;;2.10;;
67500;SDS011;54349;52.528;19.760;2023-05-07T02:21:00;3.30;;;2.00;;
67500;SDS011;54349;52.528;19.760;2023-05-07T02:23:29;3.20;;;2.10;;
67500;SDS011;54349;52.528;19.760;2023-05-07T02:25:57;3.70;;;2.10;;
67500;SDS011;54349;52.528;19.760;2023-05-07T02:28:26;3.20;;;1.90;;
67500;SDS011;54349;52.528;19.760;2023-05-07T02:30:58;3.50;;;2.00;;
67500;SDS011;54349;52.528;19.760;2023-05-07T02:33:29;4.40;;;2.10;;
67500;SDS011;54349;52.528;19.760;2023-05-07T02:36:06;3.90;;;2.10;;
67500;SDS011;54349;52.528;19.760;2023-05-07T02:39:05;2.90;;;2.00;;
67500;SDS011;54349;52.528;19.760;2023-05-07T02:41:34;2.70;;;1.90;;
67500;SDS011;54349;52.528;19.760;2023-05-07T02:44:05;3.50;;;2.10;;
67500;SDS011;54349;52.528;19.760;2023-05-07T02:46:34;3.00;;;1.90;;
67500;SDS011;54349;52.528;19.760;2023-05-07T02:49:06;2.70;;;1.80;;
67500;SDS011;54349;52.528;19.760;2023-05-07T02:51:35;5.30;;;2.10;;
67500;SDS011;54349;52.528;19.760;2023-05-07T02:54:05;3.20;;;1.90;;
67500;SDS011;54349;52.528;19.760;2023-05-07T02:56:35;2.90;;;1.90;;
67500;SDS011;54349;52.528;19.760;2023-05-07T02:59:03;3.20;;;2.00;;
67500;SDS011;54349;52.528;19.760;2023-05-07T03:01:34;3.30;;;1.90;;
67500;SDS011;54349;52.528;19.760;2023-05-07T03:04:05;2.80;;;1.90;;
67500;SDS011;54349;52.528;19.760;2023-05-07T03:06:34;4.20;;;2.10;;
67500;SDS011;54349;52.528;19.760;2023-05-07T03:09:02;2.90;;;1.80;;
67500;SDS011;54349;52.528;19.760;2023-05-07T03:11:31;2.80;;;1.90;;
67500;SDS011;54349;52.528;19.760;2023-05-07T03:13:59;3.00;;;1.90;;
67500;SDS011;54349;52.528;19.760;2023-05-07T03:16:28;3.00;;;2.10;;
67500;SDS011;54349;52.528;19.760;2023-05-07T03:18:58;3.70;;;1.80;;
67500;SDS011;54349;52.528;19.760;2023-05-07T03:21:26;2.70;;;1.90;;
67500;SDS011;54349;52.528;19.760;2023-05-07T03:23:56;3.30;;;2.10;;
67500;SDS011;54349;52.528;19.760;2023-05-07T03:26:25;3.60;;;2.00;;
67500;SDS011;54349;52.528;19.760;2023-05-07T03:28:54;3.40;;;1.80;;
67500;SDS011;54349;52.528;19.760;2023-05-07T03:31:23;2.30;;;1.50;;
67500;SDS011;54349;52.528;19.760;2023-05-07T03:33:55;2.10;;;1.60;;
67500;SDS011;54349;52.528;19.760;2023-05-07T03:36:25;2.80;;;1.90;;
67500;SDS011;54349;52.528;19.760;2023-05-07T03:38:56;2.80;;;1.80;;
67500;SDS011;54349;52.528;19.760;2023-05-07T03:41:26;3.10;;;1.90;;
67500;SDS011;54349;52.528;19.760;2023-05-07T03:43:54;3.10;;;1.90;;
67500;SDS011;54349;52.528;19.760;2023-05-07T03:46:23;2.80;;;1.90;;
67500;SDS011;54349;52.528;19.760;2023-05-07T03:48:55;2.60;;;1.80;;
67500;SDS011;54349;52.528;19.760;2023-05-07T03:51:23;3.00;;;1.90;;
67500;SDS011;54349;52.528;19.760;2023-05-07T03:53:52;3.40;;;1.80;;
67500;SDS011;54349;52.528;19.760;2023-05-07T03:56:22;3.20;;;2.00;;
67500;SDS011;54349;52.528;19.760;2023-05-07T03:58:55;2.60;;;1.80;;
67500;SDS011;54349;52.528;19.760;2023-05-07T04:01:24;3.00;;;1.80;;
67500;SDS011;54349;52.528;19.760;2023-05-07T04:03:52;3.70;;;1.80;;
67500;SDS011;54349;52.528;19.760;2023-05-07T04:06:21;1.90;;;1.60;;
67500;SDS011;54349;52.528;19.760;2023-05-07T04:08:50;1.90;;;1.60;;
67500;SDS011;54349;52.528;19.760;2023-05-07T04:11:18;3.10;;;1.90;;
67500;SDS011;54349;52.528;19.760;2023-05-07T04:13:47;2.90;;;1.70;;
67500;SDS011;54349;52.528;19.760;2023-05-07T04:16:16;2.30;;;1.80;;
67500;SDS011;54349;52.528;19.760;2023-05-07T04:18:45;3.80;;;1.70;;
67500;SDS011;54349;52.528;19.760;2023-05-07T04:21:18;2.30;;;1.60;;
67500;SDS011;54349;52.528;19.760;2023-05-07T04:23:48;2.50;;;1.70;;
67500;SDS011;54349;52.528;19.760;2023-05-07T04:26:18;2.90;;;1.80;;
67500;SDS011;54349;52.528;19.760;2023-05-07T04:28:47;2.90;;;1.70;;
67500;SDS011;54349;52.528;19.760;2023-05-07T04:31:15;3.30;;;1.80;;
67500;SDS011;54349;52.528;19.760;2023-05-07T04:33:47;2.30;;;1.70;;
67500;SDS011;54349;52.528;19.760;2023-05-07T04:36:16;2.60;;;1.80;;
67500;SDS011;54349;52.528;19.760;2023-05-07T04:38:49;2.90;;;1.70;;
67500;SDS011;54349;52.528;19.760;2023-05-07T04:41:19;2.30;;;1.70;;
67500;SDS011;54349;52.528;19.760;2023-05-07T04:43:48;2.80;;;1.80;;
67500;SDS011;54349;52.528;19.760;2023-05-07T04:46:17;3.00;;;1.90;;
67500;SDS011;54349;52.528;19.760;2023-05-07T04:48:48;2.30;;;1.70;;
67500;SDS011;54349;52.528;19.760;2023-05-07T04:51:16;3.00;;;1.70;;
67500;SDS011;54349;52.528;19.760;2023-05-07T04:53:45;2.70;;;1.70;;
67500;SDS011;54349;52.528;19.760;2023-05-07T04:56:13;3.30;;;1.70;;
67500;SDS011;54349;52.528;19.760;2023-05-07T04:58:43;2.50;;;1.70;;
67500;SDS011;54349;52.528;19.760;2023-05-07T05:01:12;2.80;;;1.70;;
67500;SDS011;54349;52.528;19.760;2023-05-07T05:03:41;3.40;;;1.70;;
67500;SDS011;54349;52.528;19.760;2023-05-07T05:06:10;3.00;;;1.70;;
67500;SDS011;54349;52.528;19.760;2023-05-07T05:08:38;2.30;;;1.70;;
67500;SDS011;54349;52.528;19.760;2023-05-07T05:11:09;3.00;;;1.70;;
67500;SDS011;54349;52.528;19.760;2023-05-07T05:13:39;2.90;;;1.60;;
67500;SDS011;54349;52.528;19.760;2023-05-07T05:16:14;3.00;;;1.90;;
67500;SDS011;54349;52.528;19.760;2023-05-07T05:18:44;3.80;;;1.80;;
67500;SDS011;54349;52.528;19.760;2023-05-07T05:21:13;2.40;;;1.70;;
67500;SDS011;54349;52.528;19.760;2023-05-07T05:23:43;1.80;;;1.50;;
67500;SDS011;54349;52.528;19.760;2023-05-07T05:26:12;2.80;;;1.80;;
67500;SDS011;54349;52.528;19.760;2023-05-07T05:28:43;2.30;;;1.70;;
67500;SDS011;54349;52.528;19.760;2023-05-07T05:31:12;2.70;;;1.70;;
67500;SDS011;54349;52.528;19.760;2023-05-07T05:33:43;3.10;;;1.80;;
67500;SDS011;54349;52.528;19.760;2023-05-07T05:36:12;3.00;;;1.70;;
67500;SDS011;54349;52.528;19.760;2023-05-07T05:38:41;1.80;;;1.50;;
67500;SDS011;54349;52.528;19.760;2023-05-07T05:41:10;2.80;;;1.60;;
67500;SDS011;54349;52.528;19.760;2023-05-07T05:43:40;1.90;;;1.50;;
67500;SDS011;54349;52.528;19.760;2023-05-07T05:46:11;2.10;;;1.60;;
67500;SDS011;54349;52.528;19.760;2023-05-07T05:48:41;3.20;;;1.50;;
67500;SDS011;54349;52.528;19.760;2023-05-07T05:51:11;1.80;;;1.40;;
67500;SDS011;54349;52.528;19.760;2023-05-07T05:53:40;1.80;;;1.50;;
67500;SDS011;54349;52.528;19.760;2023-05-07T05:56:08;2.50;;;1.40;;
67500;SDS011;54349;52.528;19.760;2023-05-07T05:58:38;2.40;;;1.60;;
67500;SDS011;54349;52.528;19.760;2023-05-07T06:01:10;2.80;;;1.70;;
67500;SDS011;54349;52.528;19.760;2023-05-07T06:03:40;2.90;;;1.50;;
67500;SDS011;54349;52.528;19.760;2023-05-07T06:06:13;1.70;;;1.50;;
67500;SDS011;54349;52.528;19.760;2023-05-07T06:08:43;2.10;;;1.50;;
67500;SDS011;54349;52.528;19.760;2023-05-07T06:11:14;1.50;;;1.30;;
67500;SDS011;54349;52.528;19.760;2023-05-07T06:13:45;3.20;;;1.70;;
67500;SDS011;54349;52.528;19.760;2023-05-07T06:16:14;1.80;;;1.50;;
67500;SDS011;54349;52.528;19.760;2023-05-07T06:18:44;2.20;;;1.40;;
67500;SDS011;54349;52.528;19.760;2023-05-07T06:21:16;2.60;;;1.50;;
67500;SDS011;54349;52.528;19.760;2023-05-07T06:23:44;2.50;;;1.60;;
67500;SDS011;54349;52.528;19.760;2023-05-07T06:26:14;2.00;;;1.50;;
67500;SDS011;54349;52.528;19.760;2023-05-07T06:28:46;1.90;;;1.60;;
67500;SDS011;54349;52.528;19.760;2023-05-07T06:31:18;1.70;;;1.50;;
67500;SDS011;54349;52.528;19.760;2023-05-07T06:34:11;2.00;;;1.40;;
67500;SDS011;54349;52.528;19.760;2023-05-07T06:36:43;2.20;;;1.50;;
67500;SDS011;54349;52.528;19.760;2023-05-07T06:39:27;2.30;;;1.50;;
67500;SDS011;54349;52.528;19.760;2023-05-07T06:41:57;1.60;;;1.40;;
67500;SDS011;54349;52.528;19.760;2023-05-07T06:44:31;1.40;;;1.30;;
67500;SDS011;54349;52.528;19.760;2023-05-07T06:47:13;2.70;;;1.30;;
67500;SDS011;54349;52.528;19.760;2023-05-07T06:49:46;3.10;;;1.60;;
67500;SDS011;54349;52.528;19.760;2023-05-07T06:52:18;2.20;;;1.50;;
67500;SDS011;54349;52.528;19.760;2023-05-07T06:54:50;3.70;;;1.50;;
67500;SDS011;54349;52.528;19.760;2023-05-07T06:57:22;2.30;;;1.40;;
67500;SDS011;54349;52.528;19.760;2023-05-07T06:59:52;2.70;;;1.60;;
67500;SDS011;54349;52.528;19.760;2023-05-07T07:02:21;1.60;;;1.40;;
67500;SDS011;54349;52.528;19.760;2023-05-07T07:04:50;1.90;;;1.50;;
67500;SDS011;54349;52.528;19.760;2023-05-07T07:07:19;2.20;;;1.30;;
67500;SDS011;54349;52.528;19.760;2023-05-07T07:09:50;2.60;;;1.60;;
67500;SDS011;54349;52.528;19.760;2023-05-07T07:12:21;2.10;;;1.40;;
67500;SDS011;54349;52.528;19.760;2023-05-07T07:14:53;1.50;;;1.40;;
67500;SDS011;54349;52.528;19.760;2023-05-07T07:17:23;2.00;;;1.50;;
67500;SDS011;54349;52.528;19.760;2023-05-07T07:19:55;1.50;;;1.20;;
67500;SDS011;54349;52.528;19.760;2023-05-07T07:22:25;1.90;;;1.50;;
67500;SDS011;54349;52.528;19.760;2023-05-07T07:24:53;2.60;;;1.60;;
67500;SDS011;54349;52.528;19.760;2023-05-07T07:27:23;2.00;;;1.40;;
67500;SDS011;54349;52.528;19.760;2023-05-07T07:29:58;2.60;;;1.60;;
67500;SDS011;54349;52.528;19.760;2023-05-07T07:32:32;1.80;;;1.40;;
67500;SDS011;54349;52.528;19.760;2023-05-07T07:35:05;1.50;;;1.30;;
67500;SDS011;54349;52.528;19.760;2023-05-07T07:37:34;2.00;;;1.40;;
67500;SDS011;54349;52.528;19.760;2023-05-07T07:40:04;1.90;;;1.50;;
67500;SDS011;54349;52.528;19.760;2023-05-07T07:42:34;2.10;;;1.40;;
67500;SDS011;54349;52.528;19.760;2023-05-07T07:45:05;2.80;;;1.50;;
67500;SDS011;54349;52.528;19.760;2023-05-07T07:47:36;1.80;;;1.30;;
67500;SDS011;54349;52.528;19.760;2023-05-07T07:50:07;1.80;;;1.40;;
67500;SDS011;54349;52.528;19.760;2023-05-07T07:52:37;2.10;;;1.40;;
67500;SDS011;54349;52.528;19.760;2023-05-07T07:55:06;1.70;;;1.50;;
67500;SDS011;54349;52.528;19.760;2023-05-07T07:57:36;1.40;;;1.30;;
67500;SDS011;54349;52.528;19.760;2023-05-07T08:00:06;1.60;;;1.30;;
67500;SDS011;54349;52.528;19.760;2023-05-07T08:02:44;1.70;;;1.40;;
67500;SDS011;54349;52.528;19.760;2023-05-07T08:05:18;2.10;;;1.50;;
67500;SDS011;54349;52.528;19.760;2023-05-07T08:07:47;2.30;;;1.30;;
67500;SDS011;54349;52.528;19.760;2023-05-07T08:10:23;1.70;;;1.40;;
67500;SDS011;54349;52.528;19.760;2023-05-07T08:12:56;2.20;;;1.40;;
67500;SDS011;54349;52.528;19.760;2023-05-07T08:15:24;2.00;;;1.40;;
67500;SDS011;54349;52.528;19.760;2023-05-07T08:17:53;2.10;;;1.40;;
67500;SDS011;54349;52.528;19.760;2023-05-07T08:20:23;2.70;;;1.60;;
67500;SDS011;54349;52.528;19.760;2023-05-07T08:22:52;1.70;;;1.30;;
67500;SDS011;54349;52.528;19.760;2023-05-07T08:25:21;3.30;;;1.60;;
67500;SDS011;54349;52.528;19.760;2023-05-07T08:27:49;1.80;;;1.40;;
67500;SDS011;54349;52.528;19.760;2023-05-07T08:30:18;2.50;;;1.50;;
67500;SDS011;54349;52.528;19.760;2023-05-07T08:32:49;1.90;;;1.40;;
67500;SDS011;54349;52.528;19.760;2023-05-07T08:35:17;1.40;;;1.30;;
67500;SDS011;54349;52.528;19.760;2023-05-07T08:37:46;3.10;;;1.40;;
67500;SDS011;54349;52.528;19.760;2023-05-07T08:40:16;1.90;;;1.40;;
67500;SDS011;54349;52.528;19.760;2023-05-07T08:42:48;3.60;;;1.60;;
67500;SDS011;54349;52.528;19.760;2023-05-07T08:45:20;2.90;;;1.50;;
67500;SDS011;54349;52.528;19.760;2023-05-07T08:48:15;2.50;;;1.60;;
67500;SDS011;54349;52.528;19.760;2023-05-07T08:50:50;3.00;;;1.70;;
67500;SDS011;54349;52.528;19.760;2023-05-07T08:53:21;2.40;;;1.60;;
67500;SDS011;54349;52.528;19.760;2023-05-07T08:55:51;2.20;;;1.50;;
67500;SDS011;54349;52.528;19.760;2023-05-07T08:58:21;2.90;;;1.50;;
67500;SDS011;54349;52.528;19.760;2023-05-07T09:00:52;2.70;;;1.40;;
67500;SDS011;54349;52.528;19.760;2023-05-07T09:03:22;2.10;;;1.40;;
67500;SDS011;54349;52.528;19.760;2023-05-07T09:05:52;2.20;;;1.40;;
67500;SDS011;54349;52.528;19.760;2023-05-07T09:08:25;2.20;;;1.40;;
67500;SDS011;54349;52.528;19.760;2023-05-07T09:13:27;1.70;;;1.50;;
67500;SDS011;54349;52.528;19.760;2023-05-07T09:15:57;3.00;;;1.50;;
67500;SDS011;54349;52.528;19.760;2023-05-07T09:18:25;2.70;;;1.60;;
67500;SDS011;54349;52.528;19.760;2023-05-07T09:20:55;3.00;;;1.60;;
67500;SDS011;54349;52.528;19.760;2023-05-07T09:23:24;3.00;;;1.60;;
67500;SDS011;54349;52.528;19.760;2023-05-07T09:25:59;3.80;;;1.70;;
67500;SDS011;54349;52.528;19.760;2023-05-07T09:28:30;3.30;;;1.40;;
67500;SDS011;54349;52.528;19.760;2023-05-07T09:31:01;2.00;;;1.50;;
67500;SDS011;54349;52.528;19.760;2023-05-07T09:33:29;3.50;;;1.60;;
67500;SDS011;54349;52.528;19.760;2023-05-07T09:36:02;2.50;;;1.40;;
67500;SDS011;54349;52.528;19.760;2023-05-07T09:38:32;2.50;;;1.60;;
67500;SDS011;54349;52.528;19.760;2023-05-07T09:41:10;3.40;;;1.60;;
67500;SDS011;54349;52.528;19.760;2023-05-07T09:43:53;3.10;;;1.60;;
67500;SDS011;54349;52.528;19.760;2023-05-07T09:46:28;2.80;;;1.60;;
67500;SDS011;54349;52.528;19.760;2023-05-07T09:49:02;3.30;;;1.80;;
67500;SDS011;54349;52.528;19.760;2023-05-07T09:51:39;3.70;;;1.70;;
67500;SDS011;54349;52.528;19.760;2023-05-07T09:54:13;3.40;;;1.60;;
67500;SDS011;54349;52.528;19.760;2023-05-07T09:56:44;2.70;;;1.70;;
67500;SDS011;54349;52.528;19.760;2023-05-07T09:59:14;2.50;;;1.50;;
67500;SDS011;54349;52.528;19.760;2023-05-07T10:01:44;2.60;;;1.50;;
67500;SDS011;54349;52.528;19.760;2023-05-07T10:04:13;2.90;;;1.50;;
67500;SDS011;54349;52.528;19.760;2023-05-07T10:06:44;4.80;;;1.70;;
67500;SDS011;54349;52.528;19.760;2023-05-07T10:09:13;2.90;;;1.70;;
67500;SDS011;54349;52.528;19.760;2023-05-07T10:11:43;3.90;;;1.70;;
67500;SDS011;54349;52.528;19.760;2023-05-07T10:14:13;4.50;;;1.80;;
67500;SDS011;54349;52.528;19.760;2023-05-07T10:16:42;3.30;;;1.70;;
67500;SDS011;54349;52.528;19.760;2023-05-07T10:19:16;3.40;;;1.70;;
67500;SDS011;54349;52.528;19.760;2023-05-07T10:22:02;2.00;;;1.50;;
67500;SDS011;54349;52.528;19.760;2023-05-07T10:24:37;2.30;;;1.60;;
67500;SDS011;54349;52.528;19.760;2023-05-07T10:27:12;3.40;;;1.70;;
67500;SDS011;54349;52.528;19.760;2023-05-07T10:30:07;4.10;;;1.80;;
67500;SDS011;54349;52.528;19.760;2023-05-07T10:32:59;3.10;;;1.60;;
67500;SDS011;54349;52.528;19.760;2023-05-07T10:35:41;3.10;;;1.60;;
67500;SDS011;54349;52.528;19.760;2023-05-07T10:38:13;3.30;;;1.60;;
67500;SDS011;54349;52.528;19.760;2023-05-07T10:40:43;3.80;;;1.60;;
67500;SDS011;54349;52.528;19.760;2023-05-07T10:43:15;2.80;;;1.50;;
67500;SDS011;54349;52.528;19.760;2023-05-07T10:46:16;3.80;;;1.70;;
67500;SDS011;54349;52.528;19.760;2023-05-07T10:51:38;3.40;;;1.60;;
67500;SDS011;54349;52.528;19.760;2023-05-07T10:56:49;5.00;;;1.70;;
67500;SDS011;54349;52.528;19.760;2023-05-07T11:02:05;3.90;;;1.70;;
67500;SDS011;54349;52.528;19.760;2023-05-07T11:05:19;3.10;;;1.70;;
67500;SDS011;54349;52.528;19.760;2023-05-07T11:08:02;2.40;;;1.60;;
67500;SDS011;54349;52.528;19.760;2023-05-07T11:10:55;3.80;;;1.80;;
67500;SDS011;54349;52.528;19.760;2023-05-07T11:13:49;3.20;;;1.60;;
67500;SDS011;54349;52.528;19.760;2023-05-07T11:17:02;2.00;;;1.60;;
67500;SDS011;54349;52.528;19.760;2023-05-07T11:19:53;2.80;;;1.60;;
67500;SDS011;54349;52.528;19.760;2023-05-07T11:25:19;2.50;;;1.50;;
67500;SDS011;54349;52.528;19.760;2023-05-07T11:27:52;3.30;;;1.70;;
67500;SDS011;54349;52.528;19.760;2023-05-07T11:30:21;2.90;;;1.60;;
67500;SDS011;54349;52.528;19.760;2023-05-07T11:32:50;1.60;;;1.40;;
67500;SDS011;54349;52.528;19.760;2023-05-07T11:35:22;2.00;;;1.40;;
67500;SDS011;54349;52.528;19.760;2023-05-07T11:40:28;2.40;;;1.50;;
67500;SDS011;54349;52.528;19.760;2023-05-07T11:42:56;3.40;;;1.60;;
67500;SDS011;54349;52.528;19.760;2023-05-07T11:45:24;2.90;;;1.50;;
67500;SDS011;54349;52.528;19.760;2023-05-07T11:47:53;2.40;;;1.50;;
67500;SDS011;54349;52.528;19.760;2023-05-07T11:50:22;3.20;;;1.60;;
67500;SDS011;54349;52.528;19.760;2023-05-07T11:52:51;3.10;;;1.60;;
67500;SDS011;54349;52.528;19.760;2023-05-07T11:55:20;3.60;;;1.70;;
67500;SDS011;54349;52.528;19.760;2023-05-07T11:57:50;2.20;;;1.50;;
67500;SDS011;54349;52.528;19.760;2023-05-07T12:00:18;2.30;;;1.60;;
67500;SDS011;54349;52.528;19.760;2023-05-07T12:02:47;2.80;;;1.40;;
67500;SDS011;54349;52.528;19.760;2023-05-07T12:05:15;2.50;;;1.60;;
67500;SDS011;54349;52.528;19.760;2023-05-07T12:07:44;2.30;;;1.40;;
67500;SDS011;54349;52.528;19.760;2023-05-07T12:10:12;2.40;;;1.50;;
67500;SDS011;54349;52.528;19.760;2023-05-07T12:12:41;2.50;;;1.50;;
67500;SDS011;54349;52.528;19.760;2023-05-07T12:15:17;3.30;;;1.60;;
67500;SDS011;54349;52.528;19.760;2023-05-07T12:17:45;2.40;;;1.50;;
67500;SDS011;54349;52.528;19.760;2023-05-07T12:20:16;2.80;;;1.60;;
67500;SDS011;54349;52.528;19.760;2023-05-07T12:22:49;2.40;;;1.50;;
67500;SDS011;54349;52.528;19.760;2023-05-07T12:25:21;2.30;;;1.50;;
67500;SDS011;54349;52.528;19.760;2023-05-07T12:27:52;3.20;;;1.40;;
67500;SDS011;54349;52.528;19.760;2023-05-07T12:30:23;2.80;;;1.50;;
67500;SDS011;54349;52.528;19.760;2023-05-07T12:32:54;2.90;;;1.30;;
67500;SDS011;54349;52.528;19.760;2023-05-07T12:35:32;2.60;;;1.50;;
67500;SDS011;54349;52.528;19.760;2023-05-07T12:38:13;3.80;;;1.50;;
67500;SDS011;54349;52.528;19.760;2023-05-07T12:40:46;2.30;;;1.50;;
67500;SDS011;54349;52.528;19.760;2023-05-07T12:43:19;2.50;;;1.50;;
67500;SDS011;54349;52.528;19.760;2023-05-07T12:45:50;2.50;;;1.30;;
67500;SDS011;54349;52.528;19.760;2023-05-07T12:48:20;3.70;;;1.40;;
67500;SDS011;54349;52.528;19.760;2023-05-07T12:50:49;4.10;;;1.70;;
67500;SDS011;54349;52.528;19.760;2023-05-07T12:53:22;6.10;;;2.10;;
67500;SDS011;54349;52.528;19.760;2023-05-07T12:55:54;26.10;;;9.10;;
67500;SDS011;54349;52.528;19.760;2023-05-07T12:58:30;66.90;;;24.70;;
67500;SDS011;54349;52.528;19.760;2023-05-07T13:01:06;112.70;;;38.90;;
67500;SDS011;54349;52.528;19.760;2023-05-07T13:03:38;119.00;;;40.40;;
67500;SDS011;54349;52.528;19.760;2023-05-07T13:06:08;128.10;;;45.80;;
67500;SDS011;54349;52.528;19.760;2023-05-07T13:08:40;134.90;;;49.30;;
67500;SDS011;54349;52.528;19.760;2023-05-07T13:11:12;131.00;;;49.10;;
67500;SDS011;54349;52.528;19.760;2023-05-07T13:13:41;152.00;;;50.80;;
67500;SDS011;54349;52.528;19.760;2023-05-07T13:16:10;138.80;;;49.20;;
67500;SDS011;54349;52.528;19.760;2023-05-07T13:18:40;133.90;;;49.00;;
67500;SDS011;54349;52.528;19.760;2023-05-07T13:21:11;136.80;;;47.60;;
67500;SDS011;54349;52.528;19.760;2023-05-07T13:23:41;120.00;;;46.30;;
67500;SDS011;54349;52.528;19.760;2023-05-07T13:26:09;126.10;;;45.20;;
67500;SDS011;54349;52.528;19.760;2023-05-07T13:28:56;115.60;;;42.10;;
67500;SDS011;54349;52.528;19.760;2023-05-07T13:31:24;105.20;;;41.50;;
67500;SDS011;54349;52.528;19.760;2023-05-07T13:33:53;95.90;;;38.40;;
67500;SDS011;54349;52.528;19.760;2023-05-07T13:36:21;99.60;;;39.30;;
67500;SDS011;54349;52.528;19.760;2023-05-07T13:38:50;89.20;;;37.90;;
67500;SDS011;54349;52.528;19.760;2023-05-07T13:41:19;81.60;;;36.40;;
67500;SDS011;54349;52.528;19.760;2023-05-07T13:43:48;86.00;;;35.30;;
67500;SDS011;54349;52.528;19.760;2023-05-07T13:46:16;86.50;;;35.10;;
67500;SDS011;54349;52.528;19.760;2023-05-07T13:48:45;79.90;;;32.60;;
67500;SDS011;54349;52.528;19.760;2023-05-07T13:51:13;71.00;;;30.20;;
67500;SDS011;54349;52.528;19.760;2023-05-07T13:53:41;71.20;;;31.60;;
67500;SDS011;54349;52.528;19.760;2023-05-07T13:56:09;70.60;;;30.30;;
67500;SDS011;54349;52.528;19.760;2023-05-07T13:58:38;68.80;;;29.70;;
67500;SDS011;54349;52.528;19.760;2023-05-07T14:01:26;64.70;;;30.50;;
67500;SDS011;54349;52.528;19.760;2023-05-07T14:03:56;60.10;;;28.10;;
67500;SDS011;54349;52.528;19.760;2023-05-07T14:06:26;61.10;;;27.30;;
67500;SDS011;54349;52.528;19.760;2023-05-07T14:08:54;59.00;;;27.00;;
67500;SDS011;54349;52.528;19.760;2023-05-07T14:11:22;52.00;;;25.60;;
67500;SDS011;54349;52.528;19.760;2023-05-07T14:13:50;55.70;;;26.50;;
67500;SDS011;54349;52.528;19.760;2023-05-07T14:16:18;56.80;;;25.90;;
67500;SDS011;54349;52.528;19.760;2023-05-07T14:18:47;57.60;;;25.20;;
67500;SDS011;54349;52.528;19.760;2023-05-07T14:21:17;57.80;;;25.50;;
67500;SDS011;54349;52.528;19.760;2023-05-07T14:23:46;53.50;;;23.20;;
67500;SDS011;54349;52.528;19.760;2023-05-07T14:26:14;50.20;;;23.00;;
67500;SDS011;54349;52.528;19.760;2023-05-07T14:28:42;53.10;;;23.30;;
67500;SDS011;54349;52.528;19.760;2023-05-07T14:31:14;51.30;;;22.20;;
67500;SDS011;54349;52.528;19.760;2023-05-07T14:33:42;57.50;;;23.20;;
67500;SDS011;54349;52.528;19.760;2023-05-07T14:36:10;54.60;;;22.50;;
67500;SDS011;54349;52.528;19.760;2023-05-07T14:38:38;45.00;;;21.70;;
67500;SDS011;54349;52.528;19.760;2023-05-07T14:41:06;46.00;;;21.50;;
67500;SDS011;54349;52.528;19.760;2023-05-07T14:43:35;41.10;;;21.30;;
67500;SDS011;54349;52.528;19.760;2023-05-07T14:46:03;45.50;;;21.90;;
67500;SDS011;54349;52.528;19.760;2023-05-07T14:48:31;45.70;;;21.00;;
67500;SDS011;54349;52.528;19.760;2023-05-07T14:50:59;44.40;;;20.70;;
67500;SDS011;54349;52.528;19.760;2023-05-07T14:53:28;48.10;;;21.40;;
67500;SDS011;54349;52.528;19.760;2023-05-07T14:55:56;44.30;;;20.70;;
67500;SDS011;54349;52.528;19.760;2023-05-07T14:58:24;41.40;;;20.20;;
67500;SDS011;54349;52.528;19.760;2023-05-07T15:00:52;43.10;;;20.40;;
67500;SDS011;54349;52.528;19.760;2023-05-07T15:03:20;40.90;;;20.00;;
67500;SDS011;54349;52.528;19.760;2023-05-07T15:05:50;40.70;;;19.90;;
67500;SDS011;54349;52.528;19.760;2023-05-07T15:08:19;40.30;;;19.60;;
67500;SDS011;54349;52.528;19.760;2023-05-07T15:10:47;38.20;;;18.30;;